Tiempo atmosférico en la estación meteorológica de Llimiana, Lleida (515 m.)



Fecha
DESCASC
Temp. máxima en grados centígrados (hora)
DESCASC
Temp. mínima en grados centígrados (hora)
DESCASC
Temp. media en grados centígrados
DESCASC
Racha de viento máxima en m/sg (hora)
DESCASC
Velocidad máxima media en intervalos de 10 minutos(hora)
DESCASC
Precipitaciones diarias en mm
DESCASC
Precipitaciones de 00:00 a 06:00 en mm
DESCASC
Precipitaciones de 06:00 a 12:00 en mm
DESCASC
Precipitaciones de 12:00 a 18:00 en mm
DESCASC
Precipitaciones de 18:00 a 24:00 en mm
DESCASC
02-04-2020 12.6 (14:10) 6.9 (05:10) 9.8 5.83 (20:10) 2.5 (20:10) 4.4 2.2 1.8 0.4 0
01-04-2020 11.2 (15:40) 7.4 (23:00) 9.3 6.94 (19:10) 3.33 (18:40) 7.6 0.2 0.2 1 6.2
31-03-2020 9.6 (16:00) 4.2 (00:00) 6.9 3.89 (23:00) 2.78 (23:10) 3.6 0.4 0.4 1 1.8
30-03-2020 9 (00:00) 3.5 (00:00) 6.3 13.33 (11:00) 7.22 (11:00) 0.4 0 0 0.4 0
29-03-2020 18.7 (13:50) 2.3 (00:00) 10.5 10.56 (15:00) 6.11 (15:50) 0 0 0 0 0
28-03-2020 17.8 (15:30) 4.1 (00:00) 10.9 8.89 (15:20) 5 (14:00) 0 0 0 0 0
27-03-2020 14.8 (14:10) -2.5 (-00:0) 6.2 9.44 (16:50) 5.28 (16:20) 0 0 0 0 0
26-03-2020 13 (12:30) 1.1 (00:00) 7.1 11.67 (14:20) 6.11 (14:20) 0 0 0 0 0
25-03-2020 8 (14:40) 3.7 (00:00) 5.9 7.5 (11:00) 3.89 (11:00) 1.4 1.2 0.2 0 0
24-03-2020 16.9 (14:00) 6.6 (00:00) 11.7 10.83 (16:20) 6.39 (15:50) 0.2 0 0 0 0.2
23-03-2020 13.7 (18:00) 6 (00:00) 9.8 9.17 (13:20) 5 (14:00) 1 0.4 0.4 0 0.2
22-03-2020 18.3 (16:00) 6.8 (06:50) 12.5 9.17 (17:20) 5.83 (17:20) 1.4 0 0 0 1.4
21-03-2020 18.2 (16:00) 1.6 (00:00) 9.9 7.78 (14:50) 4.72 (15:00) 0 0 0 0 0
20-03-2020 18.6 (14:20) 4 (00:00) 11.3 8.33 (16:50) 5.28 (16:50) 0 0 0 0 0
19-03-2020 21 (15:00) 5.9 (00:00) 13.5 9.72 (18:20) 6.11 (16:40) 0 0 0 0 0
18-03-2020 16.4 (15:10) 7.1 (00:00) 11.7 6.67 (18:10) 3.61 (17:50) 0 0 0 0 0
17-03-2020 13.3 (17:40) 7.5 (00:00) 10.4 4.17 (03:40) 2.22 (00:40) 0 0 0 0 0
16-03-2020 10.1 (00:00) 7.9 (00:00) 9 6.67 (00:10) 3.89 (15:00) 35.4 11.6 9.4 6.8 7.6
15-03-2020 20.4 (15:20) 5.5 (00:00) 12.9 10.28 (23:59) 5.83 (17:10) 2 0 0 0 2
14-03-2020 16 (16:00) 9 (00:00) 12.5 12.22 (16:30) 6.67 (14:50) 0 0 0 0 0
13-03-2020 17.1 (12:20) 10.5 (07:20) 13.8 10 (11:40) 5.83 (11:40) 0.8 0.8 0 0 0
12-03-2020 26.6 (15:50) 6.7 (00:00) 16.7 8.61 (23:00) 4.72 (21:50) 0 0 0 0 0
11-03-2020 22.5 (16:30) 3.8 (00:00) 13.1 10.83 (16:40) 6.11 (15:40) 0 0 0 0 0
10-03-2020 19 (16:20) 1.5 (00:00) 10.3 7.5 (17:20) 3.89 (17:00) 0 0 0 0 0
09-03-2020 18.3 (16:10) 2.7 (00:00) 10.5 11.11 (16:50) 5.83 (16:40) 0 0 0 0 0
08-03-2020 17.4 (13:10) 2.1 (00:00) 9.7 8.61 (14:50) 5 (14:50) 0 0 0 0 0
07-03-2020 17.9 (16:30) 0.8 (00:00) 9.3 7.5 (10:50) 5 (13:40) 0 0 0 0 0
06-03-2020 12.9 (15:20) -0.4 (00:00) 6.2 15 (18:00) 9.72 (15:40) 0 0 0 0 0
05-03-2020 15.6 (14:10) 5.9 (00:00) 10.8 16.67 (16:50) 11.11 (17:30) 1 0 0 1 0

Gráficas

Temp. máximas Temp. mínimas Temp. medias Precipitaciones Rachas de viento máximas Velocidades máximas media en intervalos de 10 minutos

Datos horarios

Fecha y hora oficial Temperatura (ºC) Velocidad del viento (km/h) Dirección del viento Racha (km/h) Dirección de racha Precipitación (mm) Presión (hPa) Tendencia (hPa) Humedad (%)
2020-04-03 23:00:00 9.7 4 Sudeste 13 Sudeste 0 -- -- 68
2020-04-03 22:00:00 10.4 5 Sudeste 15 Sur 0 -- -- 64
2020-04-03 21:00:00 11.9 9 Sudoeste 24 Sudoeste 0 -- -- 58
2020-04-03 20:00:00 13.8 10 Sudoeste 26 Sudoeste 0 -- -- 50
2020-04-03 19:00:00 15.3 13 Sudoeste 31 Sudoeste 0 -- -- 47
2020-04-03 18:00:00 16.1 16 Sudoeste 32 Sudoeste 0 -- -- 43
2020-04-03 17:00:00 16.3 19 Sudoeste 36 Sudoeste 0 -- -- 41
2020-04-03 16:00:00 16 18 Sudoeste 33 Sudoeste 0 -- -- 49
2020-04-03 15:00:00 15.4 20 Sudoeste 32 Sudoeste 0 -- -- 49
2020-04-03 14:00:00 14.6 18 Sudoeste 28 Sudoeste 0 -- -- 55
2020-04-03 13:00:00 13.6 5 Sudoeste 17 Sudoeste 0 -- -- 63
2020-04-03 12:00:00 11 3 Sur 11 Sudeste 0 -- -- 70
2020-04-03 11:00:00 7.3 5 Sudeste 9 Este 0 -- -- 88
2020-04-03 10:00:00 6.1 3 Oeste 5 Noroeste 0 -- -- 93
2020-04-03 09:00:00 5.5 3 Noroeste 5 Noroeste 0 -- -- 94
2020-04-03 08:00:00 5.3 0 Calma 4 Noroeste 0 -- -- 94
2020-04-03 07:00:00 5.4 0 Calma 4 Oeste 0 -- -- 94
2020-04-03 06:00:00 5.4 0 Calma 6 Este 0.2 -- -- 94
2020-04-03 05:00:00 5.5 0 Calma 6 Norte 0 -- -- 93
2020-04-03 04:00:00 5.5 0 Calma 4 Norte 0 -- -- 92
2020-04-03 03:00:00 6 2 Este 4 Este 0 -- -- 93
2020-04-03 02:00:00 5.7 0 Calma 5 Nordeste 0 -- -- 89
2020-04-03 01:00:00 6.5 0 Calma 7 Oeste 0 -- -- 88
2020-04-03 00:00:00 7.3 4 Norte 9 Este 0 -- -- 85
2020-04-02 23:00:00 8.9 5 Este 9 Este 0 -- -- 82
2020-04-02 22:00:00 9.9 2 Sudeste 5 Noroeste 0 -- -- 80
2020-04-02 21:00:00 10.3 0 Calma 21 Sudoeste 0 -- -- 77
2020-04-02 20:00:00 10.8 8 Sudoeste 19 Sudoeste 0 -- -- 73
2020-04-02 19:00:00 11.6 3 Sur 11 Sudeste 0 -- -- 74
2020-04-02 18:00:00 11.6 4 Sur 8 Sudeste 0 -- -- 72
2020-04-02 17:00:00 11.3 5 Sudeste 10 Sudoeste 0.4 -- -- 75
2020-04-02 16:00:00 12.4 4 Sudoeste 12 Sudoeste 0 -- -- 63
2020-04-02 15:00:00 12.4 7 Sudoeste 12 Sudoeste 0 -- -- 67
2020-04-02 14:00:00 12.5 3 Oeste 11 Sudoeste 0 -- -- 70
2020-04-02 13:00:00 10.8 2 Sudoeste 5 Sudoeste 0 -- -- 82
2020-04-02 12:00:00 9.2 3 Oeste 5 Oeste 0.4 -- -- 90
2020-04-02 11:00:00 8.5 2 Sudoeste 4 Sudoeste 1 -- -- 94
2020-04-02 10:00:00 8 2 Oeste 8 Sudeste 0.2 -- -- 94
2020-04-02 09:00:00 7.4 3 Sudeste 5 Sudeste 0 -- -- 94
2020-04-02 08:00:00 7 0 Calma 0 Calma 0 -- -- 92
2020-04-02 07:00:00 7 0 Calma 2 Sudoeste 0.2 -- -- 92
2020-04-02 06:00:00 7 2 Sudeste 5 Sudeste 0.4 -- -- 92
2020-04-02 05:00:00 7 2 Este 3 Sudeste 0.4 -- -- 91
2020-04-02 04:00:00 7.2 0 Calma 4 Norte 0.8 -- -- 91
2020-04-02 03:00:00 7.4 2 Noroeste 5 Sur 0.6 -- -- 91
2020-04-02 02:00:00 7.4 3 Sur 6 Este 0 -- -- 91
2020-04-02 01:00:00 7.4 3 Sudeste 7 Este 0 -- -- 91
2020-04-02 00:00:00 7.5 0 Calma 7 Noroeste 0.2 -- -- 91
2020-04-01 23:00:00 7.4 2 Oeste 6 Sudoeste 1 -- -- 87
2020-04-01 22:00:00 7.8 5 Sudoeste 13 Sur 1.6 -- -- 85
2020-04-01 21:00:00 8.1 3 Este 10 Sudoeste 1 -- -- 85
2020-04-01 20:00:00 8.5 4 Sudoeste 25 Sudoeste 0.6 -- -- 81
2020-04-01 19:00:00 8.8 5 Sur 23 Sudoeste 1.8 -- -- 81
2020-04-01 18:00:00 10.3 5 Noroeste 15 Noroeste 0.2 -- -- 75
2020-04-01 17:00:00 10.9 4 Nordeste 15 Este 0 -- -- 68
2020-04-01 16:00:00 11.1 8 Este 22 Sudeste 0 -- -- 67
2020-04-01 15:00:00 10.8 6 Sudoeste 22 Norte 0 -- -- 66
2020-04-01 14:00:00 10.1 12 Norte 19 Norte 0 -- -- 80
2020-04-01 13:00:00 9.7 3 Oeste 17 Este 0.8 -- -- 80
2020-04-01 12:00:00 10 9 Sudeste 23 Sudeste 0 -- -- 69
2020-04-01 11:00:00 9.6 5 Nordeste 14 Norte 0 -- -- 73
2020-04-01 10:00:00 8.2 9 Norte 14 Norte 0 -- -- 91
2020-04-01 09:00:00 7.8 2 Sudoeste 10 Nordeste 0 -- -- 89
2020-04-01 08:00:00 7.9 6 Norte 13 Nordeste 0.2 -- -- 86
2020-04-01 07:00:00 7.8 6 Nordeste 12 Norte 0 -- -- 85
2020-04-01 06:00:00 7.6 8 Nordeste 12 Nordeste 0 -- -- 89
2020-04-01 05:00:00 7.9 5 Norte 16 Nordeste 0.2 -- -- 85
2020-04-01 04:00:00 7.9 8 Norte 14 Norte 0 -- -- 86
2020-04-01 03:00:00 8.1 0 Calma 15 Nordeste 0 -- -- 83
2020-04-01 02:00:00 8.4 5 Nordeste 13 Norte 0 -- -- 78
2020-04-01 01:00:00 8 7 Nordeste 14 Nordeste 0 -- -- 83
2020-04-01 00:00:00 7.9 7 Nordeste 14 Norte 0 -- -- 83
2020-03-31 23:00:00 7.8 10 Nordeste 14 Nordeste 0 -- -- 86
2020-03-31 22:00:00 7.8 6 Nordeste 13 Norte 0.4 -- -- 84
2020-03-31 21:00:00 8.1 3 Noroeste 11 Sudeste 0.2 -- -- 83
2020-03-31 20:00:00 8.4 3 Nordeste 12 Este 0.4 -- -- 79
2020-03-31 19:00:00 8.8 2 Nordeste 8 Nordeste 0.8 -- -- 81
2020-03-31 18:00:00 9.3 3 Norte 8 Noroeste 0.6 -- -- 84
2020-03-31 17:00:00 9.4 3 Noroeste 5 Oeste 0.4 -- -- 84
2020-03-31 16:00:00 9.6 5 Nordeste 14 Noroeste 0 -- -- 79
2020-03-31 15:00:00 8.8 4 Noroeste 10 Norte 0 -- -- 84
2020-03-31 14:00:00 8 3 Norte 9 Oeste 0 -- -- 86
2020-03-31 13:00:00 7.8 4 Norte 10 Oeste 0 -- -- 88
2020-03-31 12:00:00 6.6 4 Oeste 10 Oeste 0 -- -- 88
2020-03-31 11:00:00 6.1 4 Este 8 Este 0 -- -- 91
2020-03-31 10:00:00 5.2 3 Oeste 9 Este 0.2 -- -- 91
2020-03-31 09:00:00 4.5 4 Oeste 10 Oeste 0 -- -- 90
2020-03-31 08:00:00 4.3 3 Noroeste 9 Noroeste 0 -- -- 89
2020-03-31 07:00:00 4.2 4 Noroeste 8 Norte 0.2 -- -- 86
2020-03-31 06:00:00 4.3 0 Calma 6 Este 0.4 -- -- 84
2020-03-31 05:00:00 4.3 2 Oeste 4 Oeste 0 -- -- 82
2020-03-31 04:00:00 4.4 0 Calma 2 Oeste 0 -- -- 80
2020-03-31 03:00:00 4.4 0 Calma 3 Norte 0 -- -- 77
2020-03-31 02:00:00 4.5 0 Calma 3 Noroeste 0 -- -- 77
2020-03-31 01:00:00 4.4 0 Calma 3 Este 0 -- -- 76
2020-03-31 00:00:00 4.2 0 Calma 10 Sur 0 -- -- 72
2020-03-30 23:00:00 4.3 5 Sur 17 Sudoeste 0 -- -- 68
2020-03-30 22:00:00 5 5 Sudeste 13 Sudoeste 0 -- -- 67
2020-03-30 21:00:00 5.5 4 Sur 21 Sudoeste 0 -- -- 61
2020-03-30 20:00:00 6.3 6 Sudoeste 20 Oeste 0 -- -- 58
2020-03-30 19:00:00 7.4 9 Sudoeste 21 Oeste 0 -- -- 56
2020-03-30 18:00:00 7.9 14 Sudoeste 25 Sudoeste 0 -- -- 54
2020-03-30 17:00:00 8.5 15 Sudoeste 25 Sudoeste 0 -- -- 57
2020-03-30 16:00:00 6.7 13 Sudoeste 25 Sudoeste 0.2 -- -- 67
2020-03-30 15:00:00 5.1 11 Sudoeste 31 Sudoeste 0 -- -- 70
2020-03-30 14:00:00 4.5 12 Sudoeste 26 Sudoeste 0.2 -- -- 73
2020-03-30 13:00:00 3.7 12 Sudoeste 34 Sur 0 -- -- 75
2020-03-30 12:00:00 3.7 17 Sudoeste 46 Sudoeste 0 -- -- 71
2020-03-30 11:00:00 4.1 26 Sudoeste 48 Sudoeste 0 -- -- 70
2020-03-30 10:00:00 4.8 18 Sudoeste 37 Sudoeste 0 -- -- 69
2020-03-30 09:00:00 4.9 18 Sudoeste 38 Sudoeste 0 -- -- 69
2020-03-30 08:00:00 5.9 19 Sudoeste 33 Sudoeste 0 -- -- 73
2020-03-30 07:00:00 6.5 12 Sudoeste 31 Sudoeste 0 -- -- 72
2020-03-30 06:00:00 6.8 19 Sudoeste 32 Sudoeste 0 -- -- 71
2020-03-30 05:00:00 7.2 8 Sudoeste 29 Sur 0 -- -- 69
2020-03-30 04:00:00 7.3 10 Sur 36 Sudoeste 0 -- -- 69
2020-03-30 03:00:00 8.1 5 Sudoeste 17 Sudoeste 0 -- -- 70
2020-03-30 02:00:00 8.1 3 Sur 13 Sudeste 0 -- -- 72
2020-03-30 01:00:00 8.1 0 Calma 6 Nordeste 0 -- -- 70
2020-03-30 00:00:00 9 2 Noroeste 8 Norte 0 -- -- 66
2020-03-29 23:00:00 10.5 3 Nordeste 6 Nordeste 0 -- -- 63
2020-03-29 22:00:00 10.9 7 Nordeste 10 Nordeste 0 -- -- 62
2020-03-29 21:00:00 11.9 6 Norte 22 Norte 0 -- -- 61
2020-03-29 20:00:00 13.6 9 Norte 15 Norte 0 -- -- 58
2020-03-29 19:00:00 15.4 13 Sudeste 22 Sudeste 0 -- -- 40
2020-03-29 18:00:00 15.6 12 Sudoeste 34 Sudoeste 0 -- -- 41
2020-03-29 17:00:00 16.1 18 Sudoeste 34 Sudoeste 0 -- -- 39
2020-03-29 16:00:00 16.6 20 Sudoeste 38 Sudoeste 0 -- -- 42
2020-03-29 15:00:00 18.1 21 Sudoeste 38 Sudoeste 0 -- -- 42
2020-03-29 14:00:00 18.3 17 Sudoeste 26 Sudoeste 0 -- -- 36
2020-03-29 13:00:00 16.9 4 Oeste 10 Oeste 0 -- -- 31
2020-03-29 12:00:00 13.6 0 Calma 7 Oeste 0 -- -- 47
2020-03-29 11:00:00 10.1 3 Noroeste 7 Noroeste 0 -- -- 63
2020-03-29 10:00:00 7.4 2 Oeste 6 Sur 0 -- -- 75
2020-03-29 09:00:00 3.6 0 Calma 5 Norte 0 -- -- 87
2020-03-29 08:00:00 2.5 0 Calma 4 Norte 0 -- -- 84
2020-03-29 07:00:00 2.7 0 Calma 4 Noroeste 0 -- -- 81
2020-03-29 06:00:00 4 0 Calma 3 Norte 0 -- -- 78
2020-03-29 05:00:00 4.1 2 Sudeste 4 Este 0 -- -- 79
2020-03-29 03:00:00 5.8 4 Norte 5 Norte 0 -- -- 72
2020-03-29 01:00:00 6.4 2 Sudeste 5 Norte 0 -- -- 69
2020-03-29 00:00:00 7.3 0 Calma 5 Norte 0 -- -- 64
2020-03-28 23:00:00 9.5 2 Nordeste 9 Este 0 -- -- 56
2020-03-28 22:00:00 10.5 3 Este 8 Norte 0 -- -- 53
2020-03-28 21:00:00 12 2 Sudeste 9 Oeste 0 -- -- 47
2020-03-28 20:00:00 12.8 3 Este 19 Sur 0 -- -- 44
2020-03-28 19:00:00 14.1 11 Sudoeste 25 Sur 0 -- -- 40
2020-03-28 18:00:00 15 11 Sudoeste 25 Sudoeste 0 -- -- 38
2020-03-28 17:00:00 16 13 Sudoeste 26 Sudoeste 0 -- -- 39
2020-03-28 16:00:00 17 15 Sudoeste 32 Sudoeste 0 -- -- 36
2020-03-28 15:00:00 16.9 15 Sudoeste 31 Sudoeste 0 -- -- 42
2020-03-28 14:00:00 15.7 18 Sudoeste 31 Oeste 0 -- -- 40
2020-03-28 13:00:00 16.4 15 Sudoeste 26 Sudoeste 0 -- -- 37
2020-03-28 12:00:00 15.8 11 Sudoeste 20 Sudoeste 0 -- -- 39
2020-03-28 11:00:00 12.3 3 Oeste 7 Oeste 0 -- -- 53
2020-03-28 10:00:00 10.6 2 Sudoeste 6 Oeste 0 -- -- 60
2020-03-28 09:00:00 7.1 2 Oeste 5 Oeste 0 -- -- 74
2020-03-28 08:00:00 4.6 0 Calma 2 Nordeste 0 -- -- 80
2020-03-28 07:00:00 4.4 0 Calma 5 Norte 0 -- -- 78
2020-03-28 06:00:00 4.6 0 Calma 5 Este 0 -- -- 77
2020-03-28 05:00:00 4.3 0 Calma 4 Este 0 -- -- 77
2020-03-28 04:00:00 5.2 3 Sudeste 5 Este 0 -- -- 74
2020-03-28 03:00:00 6.2 3 Norte 5 Norte 0 -- -- 72
2020-03-28 02:00:00 6.9 0 Calma 2 Sudeste 0 -- -- 65
2020-03-28 01:00:00 7 0 Calma 2 Este 0 -- -- 67
2020-03-28 00:00:00 7.2 2 Sudeste 7 Este 0 -- -- 65
2020-03-27 23:00:00 7 4 Sudeste 10 Nordeste 0 -- -- 64
2020-03-27 22:00:00 7.6 6 Nordeste 17 Sudoeste 0 -- -- 60
2020-03-27 21:00:00 9.1 9 Sudoeste 24 Sudoeste 0 -- -- 51
2020-03-27 20:00:00 9.5 15 Sudoeste 30 Sudoeste 0 -- -- 49
2020-03-27 19:00:00 10.3 18 Sudoeste 33 Sudoeste 0 -- -- 47
2020-03-27 18:00:00 10.9 16 Sudoeste 34 Sudoeste 0 -- -- 46
2020-03-27 17:00:00 11.3 18 Sudoeste 34 Sudoeste 0 -- -- 46
2020-03-27 16:00:00 12.4 16 Sudoeste 27 Sudoeste 0 -- -- 43
2020-03-27 15:00:00 13.3 13 Sudoeste 23 Sudoeste 0 -- -- 40
2020-03-27 14:00:00 14.3 7 Oeste 16 Sudoeste 0 -- -- 23
2020-03-27 13:00:00 13.3 4 Norte 10 Sur 0 -- -- 28
2020-03-27 12:00:00 10.9 6 Oeste 12 Oeste 0 -- -- 47
2020-03-27 11:00:00 7.3 3 Norte 9 Oeste 0 -- -- 60
2020-03-27 10:00:00 3.1 2 Oeste 5 Oeste 0 -- -- 95
2020-03-27 09:00:00 -0.5 0 Calma 2 Sudoeste 0 -- -- 91
2020-03-27 08:00:00 -2 0 Calma 3 Sudoeste 0 -- -- 88
2020-03-27 07:00:00 -2.4 0 Calma 3 Norte 0 -- -- 87
2020-03-27 06:00:00 -1.9 0 Calma 4 Este 0 -- -- 86
2020-03-27 05:00:00 -1.8 0 Calma 3 Norte 0 -- -- 85
2020-03-27 04:00:00 -1.2 0 Calma 5 Nordeste 0 -- -- 83
2020-03-27 03:00:00 -0.3 3 Este 7 Sudeste 0 -- -- 83
2020-03-27 02:00:00 -0.7 4 Sudeste 7 Sudeste 0 -- -- 83
2020-03-27 01:00:00 0.3 3 Norte 5 Norte 0 -- -- 78
2020-03-27 00:00:00 1.1 4 Este 8 Nordeste 0 -- -- 77
2020-03-26 23:00:00 2.2 5 Este 9 Sudeste 0 -- -- 73
2020-03-26 22:00:00 2.6 4 Nordeste 6 Nordeste 0 -- -- 71
2020-03-26 21:00:00 4.1 0 Calma 21 Este 0 -- -- 65
2020-03-26 20:00:00 5.8 13 Este 33 Sudeste 0 -- -- 53
2020-03-26 19:00:00 6.3 20 Este 30 Este 0 -- -- 53
2020-03-26 18:00:00 7.3 6 Sudeste 29 Sudeste 0 -- -- 55
2020-03-26 17:00:00 7.1 7 Sudoeste 33 Sudoeste 0 -- -- 54
2020-03-26 16:00:00 7.2 14 Sudoeste 33 Sudoeste 0 -- -- 56
2020-03-26 15:00:00 7.2 9 Sur 42 Sudoeste 0 -- -- 51
2020-03-26 14:00:00 8.8 17 Sudoeste 35 Sur 0 -- -- 42
2020-03-26 13:00:00 10.4 16 Oeste 27 Oeste 0 -- -- 41
2020-03-26 12:00:00 11.6 10 Noroeste 22 Noroeste 0 -- -- 36
2020-03-26 11:00:00 10.5 7 Oeste 13 Oeste 0 -- -- 55
2020-03-26 10:00:00 8.4 4 Noroeste 9 Noroeste 0 -- -- 57
2020-03-26 09:00:00 6.7 3 Oeste 5 Sur 0 -- -- 69
2020-03-26 08:00:00 2.9 0 Calma 7 Nordeste 0 -- -- 79
2020-03-26 07:00:00 3.1 2 Norte 8 Este 0 -- -- 78
2020-03-26 06:00:00 3.9 0 Calma 9 Este 0 -- -- 74
2020-03-26 05:00:00 5 2 Este 14 Sudoeste 0 -- -- 72
2020-03-26 04:00:00 5.4 5 Sudoeste 12 Sur 0 -- -- 69
2020-03-26 03:00:00 5.5 0 Calma 3 Oeste 0 -- -- 70
2020-03-26 02:00:00 5.6 0 Calma 3 Este 0 -- -- 68
2020-03-26 01:00:00 5.6 0 Calma 5 Este 0 -- -- 64
2020-03-26 00:00:00 5.7 0 Calma 4 Este 0 -- -- 65
2020-03-25 23:00:00 5.8 0 Calma 7 Este 0 -- -- 63
2020-03-25 22:00:00 6 3 Sudeste 6 Este 0 -- -- 68
2020-03-25 21:00:00 6.1 4 Sudeste 17 Sudoeste 0 -- -- 61
2020-03-25 20:00:00 6.3 9 Sudoeste 17 Oeste 0 -- -- 59
2020-03-25 19:00:00 7 2 Sudoeste 8 Este 0 -- -- 57
2020-03-25 18:00:00 7.5 3 Nordeste 8 Norte 0 -- -- 57
2020-03-25 17:00:00 7.7 2 Oeste 9 Noroeste 0 -- -- 55
2020-03-25 16:00:00 8 3 Norte 8 Norte 0 -- -- 52
2020-03-25 15:00:00 8 3 Norte 13 Oeste 0 -- -- 51
2020-03-25 14:00:00 6.7 7 Oeste 13 Oeste 0 -- -- 56
2020-03-25 13:00:00 6.3 4 Oeste 14 Oeste 0 -- -- 57
2020-03-25 12:00:00 5.7 3 Sudoeste 20 Sudeste 0 -- -- 61
2020-03-25 11:00:00 4.6 14 Este 27 Este 0 -- -- 63
2020-03-25 10:00:00 4.3 8 Este 16 Sudeste 0 -- -- 65
2020-03-25 09:00:00 4.1 2 Noroeste 7 Oeste 0.2 -- -- 73
2020-03-25 08:00:00 3.8 2 Sudeste 19 Oeste 0 -- -- 76
2020-03-25 07:00:00 3.9 3 Sudoeste 17 Oeste 0 -- -- 77
2020-03-25 06:00:00 4.3 8 Sur 18 Sudoeste 0.4 -- -- 76
2020-03-25 05:00:00 5.4 4 Este 21 Sudoeste 0.2 -- -- 75
2020-03-25 04:00:00 5.4 8 Sudoeste 24 Sudoeste 0 -- -- 75
2020-03-25 03:00:00 5.3 10 Sudoeste 21 Sudoeste 0.2 -- -- 76
2020-03-25 02:00:00 5.7 6 Sudeste 21 Este 0.2 -- -- 79
2020-03-25 01:00:00 5.9 10 Sudoeste 24 Sudoeste 0.2 -- -- 76
2020-03-25 00:00:00 6.6 6 Sudeste 27 Sudoeste 0.2 -- -- 72
2020-03-24 23:00:00 7.4 13 Sudoeste 31 Sur 0 -- -- 67
2020-03-24 22:00:00 8.1 11 Sudoeste 26 Sudoeste 0 -- -- 67
2020-03-24 21:00:00 8.4 9 Sudoeste 33 Sudoeste 0 -- -- 68
2020-03-24 20:00:00 9.2 12 Sudoeste 31 Sudoeste 0 -- -- 66
2020-03-24 19:00:00 10.4 12 Sudoeste 30 Sudeste 0 -- -- 60
2020-03-24 18:00:00 11.3 10 Sudeste 31 Oeste 0 -- -- 59
2020-03-24 17:00:00 12.8 20 Sudoeste 39 Sudoeste 0 -- -- 53
2020-03-24 16:00:00 14.8 23 Sudoeste 38 Sudoeste 0 -- -- 47
2020-03-24 15:00:00 15.9 21 Sudoeste 36 Sudoeste 0 -- -- 46
2020-03-24 14:00:00 16.9 17 Sudoeste 28 Sudoeste 0 -- -- 45
2020-03-24 13:00:00 15.5 15 Sudoeste 26 Sudoeste 0 -- -- 47
2020-03-24 12:00:00 14.1 12 Sudoeste 19 Oeste 0 -- -- 50
2020-03-24 11:00:00 13 4 Norte 8 Norte 0 -- -- 60
2020-03-24 10:00:00 11.5 0 Calma 8 Oeste 0 -- -- 60
2020-03-24 09:00:00 10.5 3 Noroeste 10 Nordeste 0 -- -- 67
2020-03-24 08:00:00 8.3 4 Este 16 Este 0 -- -- 74
2020-03-24 07:00:00 7.5 3 Sudoeste 13 Este 0 -- -- 74
2020-03-24 06:00:00 8 2 Sudeste 12 Sur 0 -- -- 74
2020-03-24 05:00:00 7.7 4 Sudeste 10 Este 0 -- -- 75
2020-03-24 04:00:00 7.6 3 Este 6 Este 0 -- -- 76
2020-03-24 03:00:00 8.7 3 Norte 7 Norte 0 -- -- 73
2020-03-24 02:00:00 9.3 0 Calma 17 Sudeste 0 -- -- 70
2020-03-24 01:00:00 10.1 12 Sudeste 23 Sudeste 0 -- -- 61
2020-03-24 00:00:00 10 6 Sudeste 21 Nordeste 0 -- -- 64
2020-03-23 23:00:00 10.9 14 Este 24 Este 0 -- -- 59
2020-03-23 22:00:00 10.9 12 Este 24 Este 0 -- -- 61
2020-03-23 21:00:00 11.2 4 Sudoeste 27 Este 0 -- -- 61
2020-03-23 20:00:00 11.6 6 Sudeste 25 Este 0.2 -- -- 68
2020-03-23 19:00:00 12.6 13 Sudeste 26 Sudeste 0 -- -- 57
2020-03-23 18:00:00 13.7 11 Sudeste 23 Sudeste 0 -- -- 55
2020-03-23 17:00:00 13 9 Sudeste 28 Sudeste 0 -- -- 58
2020-03-23 16:00:00 12.7 12 Sudeste 30 Este 0 -- -- 58
2020-03-23 15:00:00 12.3 18 Este 32 Sudeste 0 -- -- 56
2020-03-23 14:00:00 12.6 18 Sudeste 33 Sudeste 0 -- -- 57
2020-03-23 13:00:00 12.3 12 Sudeste 31 Sudeste 0 -- -- 61
2020-03-23 12:00:00 11.9 13 Sudeste 27 Sudeste 0 -- -- 65
2020-03-23 11:00:00 10.6 3 Oeste 8 Oeste 0 -- -- 82
2020-03-23 10:00:00 8.8 2 Sudoeste 5 Oeste 0 -- -- 90
2020-03-23 09:00:00 8.1 0 Calma 5 Oeste 0 -- -- 91
2020-03-23 08:00:00 7.2 0 Calma 4 Norte 0 -- -- 91
2020-03-23 07:00:00 6.7 0 Calma 5 Nordeste 0.4 -- -- 90
2020-03-23 06:00:00 6.6 3 Sudeste 8 Sudeste 0.4 -- -- 90
2020-03-23 05:00:00 6.3 2 Sudeste 6 Sudeste 0 -- -- 89
2020-03-23 04:00:00 6.3 3 Noroeste 6 Norte 0 -- -- 86
2020-03-23 03:00:00 6.7 5 Este 7 Nordeste 0 -- -- 87
2020-03-23 02:00:00 6.8 0 Calma 5 Nordeste 0 -- -- 86
2020-03-23 01:00:00 7.7 3 Este 8 Este 0 -- -- 82
2020-03-23 00:00:00 9.2 3 Norte 20 Sudeste 1 -- -- 80
2020-03-22 23:00:00 10.2 6 Sudeste 15 Sudeste 0.4 -- -- 76
2020-03-22 22:00:00 11.3 3 Este 9 Norte 0 -- -- 64
2020-03-22 21:00:00 12 5 Sur 21 Este 0 -- -- 57
2020-03-22 20:00:00 12 10 Sudoeste 31 Sudoeste 0 -- -- 58
2020-03-22 19:00:00 12.8 15 Sudoeste 32 Oeste 0 -- -- 55
2020-03-22 18:00:00 14.1 17 Sudoeste 33 Sudoeste 0 -- -- 51
2020-03-22 17:00:00 17 6 Sudeste 21 Sudeste 0 -- -- 38
2020-03-22 16:00:00 18.3 7 Sudoeste 22 Sudeste 0 -- -- 34
2020-03-22 15:00:00 17.4 4 Sudoeste 18 Noroeste 0 -- -- 35
2020-03-22 14:00:00 16.1 9 Sur 22 Sudeste 0 -- -- 42
2020-03-22 13:00:00 15.3 5 Noroeste 10 Oeste 0 -- -- 46
2020-03-22 12:00:00 14.6 4 Noroeste 10 Oeste 0 -- -- 49
2020-03-22 11:00:00 15.2 5 Oeste 11 Oeste 0 -- -- 51
2020-03-22 10:00:00 11.9 3 Oeste 6 Oeste 0 -- -- 64
2020-03-22 09:00:00 9.5 4 Oeste 6 Sudoeste 0 -- -- 76
2020-03-22 08:00:00 7.3 0 Calma 2 Norte 0 -- -- 82
2020-03-22 07:00:00 6.8 0 Calma 6 Sudeste 0 -- -- 79
2020-03-22 06:00:00 7.3 0 Calma 6 Norte 0 -- -- 76
2020-03-22 05:00:00 7.7 0 Calma 8 Sudeste 0 -- -- 78
2020-03-22 04:00:00 7.6 6 Sudeste 8 Sudeste 0 -- -- 75
2020-03-22 03:00:00 7.6 2 Norte 4 Norte 0 -- -- 74
2020-03-22 02:00:00 7.7 0 Calma 3 Este 0 -- -- 74
2020-03-22 01:00:00 7.1 0 Calma 6 Sudeste 0 -- -- 73
2020-03-22 00:00:00 7.8 2 Sudeste 5 Sudeste 0 -- -- 70
2020-03-21 23:00:00 9 0 Calma 19 Sudoeste 0 -- -- 64
2020-03-21 22:00:00 10.9 8 Sudoeste 25 Sudoeste 0 -- -- 59
2020-03-21 21:00:00 11.4 8 Sudoeste 16 Sudoeste 0 -- -- 50
2020-03-21 20:00:00 12.2 6 Sudeste 24 Sur 0 -- -- 42
2020-03-21 19:00:00 13.7 14 Sudoeste 24 Oeste 0 -- -- 39
2020-03-21 18:00:00 15.7 13 Sudoeste 24 Sudoeste 0 -- -- 35
2020-03-21 17:00:00 17.6 14 Sudoeste 26 Sudoeste 0 -- -- 32
2020-03-21 16:00:00 18.2 15 Sudoeste 26 Sudoeste 0 -- -- 33
2020-03-21 15:00:00 17.8 17 Sudoeste 28 Sudoeste 0 -- -- 33
2020-03-21 14:00:00 17.5 8 Sudoeste 20 Oeste 0 -- -- 35
2020-03-21 13:00:00 15.9 5 Oeste 12 Oeste 0 -- -- 35
2020-03-21 12:00:00 13.7 4 Oeste 10 Oeste 0 -- -- 48
2020-03-21 11:00:00 10.9 2 Oeste 7 Oeste 0 -- -- 64
2020-03-21 10:00:00 7.5 2 Oeste 6 Oeste 0 -- -- 79
2020-03-21 09:00:00 4.6 2 Oeste 4 Oeste 0 -- -- 91
2020-03-21 08:00:00 1.6 0 Calma 5 Norte 0 -- -- 88
2020-03-21 07:00:00 2.3 0 Calma 5 Este 0 -- -- 86
2020-03-21 06:00:00 2.9 3 Este 4 Este 0 -- -- 86
2020-03-21 05:00:00 3.2 0 Calma 3 Oeste 0 -- -- 86
2020-03-21 04:00:00 3.7 0 Calma 5 Este 0 -- -- 85
2020-03-21 03:00:00 4 0 Calma 2 Este 0 -- -- 82
2020-03-21 02:00:00 5.4 0 Calma 3 Norte 0 -- -- 76
2020-03-21 01:00:00 6.6 0 Calma 5 Sudeste 0 -- -- 75
2020-03-21 00:00:00 6.7 0 Calma 4 Este 0 -- -- 74
2020-03-20 23:00:00 8.2 0 Calma 5 Sudeste 0 -- -- 69
2020-03-20 22:00:00 9.2 3 Nordeste 8 Sudeste 0 -- -- 65
2020-03-20 21:00:00 10.9 4 Sudeste 22 Sur 0 -- -- 54
2020-03-20 20:00:00 12.2 13 Sudoeste 30 Sudoeste 0 -- -- 50
2020-03-20 19:00:00 13.4 12 Sudoeste 28 Sudoeste 0 -- -- 37
2020-03-20 18:00:00 15.3 12 Sudoeste 29 Oeste 0 -- -- 36
2020-03-20 17:00:00 16.4 16 Sudoeste 30 Sudoeste 0 -- -- 35
2020-03-20 16:00:00 18 12 Sudoeste 29 Oeste 0 -- -- 35
2020-03-20 15:00:00 17.2 11 Este 23 Sudeste 0 -- -- 34
2020-03-20 14:00:00 18.3 9 Sudoeste 28 Sudoeste 0 -- -- 27
2020-03-20 13:00:00 17 15 Sudoeste 23 Oeste 0 -- -- 37
2020-03-20 12:00:00 15.6 3 Oeste 9 Sudoeste 0 -- -- 43
2020-03-20 11:00:00 12 3 Oeste 6 Noroeste 0 -- -- 66
2020-03-20 10:00:00 9.8 0 Calma 4 Oeste 0 -- -- 77
2020-03-20 09:00:00 7.6 0 Calma 3 Norte 0 -- -- 79
2020-03-20 08:00:00 4.7 0 Calma 3 Nordeste 0 -- -- 89
2020-03-20 07:00:00 4.1 0 Calma 5 Este 0 -- -- 85
2020-03-20 06:00:00 4.2 0 Calma 6 Este 0 -- -- 86
2020-03-20 05:00:00 4.5 0 Calma 5 Este 0 -- -- 86
2020-03-20 04:00:00 5 0 Calma 3 Norte 0 -- -- 84
2020-03-20 03:00:00 5.6 2 Sudeste 5 Nordeste 0 -- -- 84
2020-03-20 02:00:00 6.2 3 Nordeste 5 Norte 0 -- -- 80
2020-03-20 01:00:00 7.2 2 Norte 5 Este 0 -- -- 78
2020-03-20 00:00:00 7.8 4 Nordeste 7 Este 0 -- -- 76
2020-03-19 23:00:00 9.1 3 Este 8 Este 0 -- -- 70
2020-03-19 22:00:00 10.2 5 Este 10 Nordeste 0 -- -- 67
2020-03-19 21:00:00 11.5 3 Este 10 Sudoeste 0 -- -- 64
2020-03-19 20:00:00 12.5 3 Nordeste 13 Sudoeste 0 -- -- 60
2020-03-19 19:00:00 14.2 4 Noroeste 35 Sudoeste 0 -- -- 53
2020-03-19 18:00:00 15.6 15 Sudoeste 33 Sudoeste 0 -- -- 48
2020-03-19 17:00:00 16.5 15 Sudoeste 35 Oeste 0 -- -- 28
2020-03-19 16:00:00 20.2 14 Oeste 29 Sudoeste 0 -- -- 30
2020-03-19 15:00:00 21 10 Oeste 22 Oeste 0 -- -- 30
2020-03-19 14:00:00 19.2 11 Oeste 23 Oeste 0 -- -- 42
2020-03-19 13:00:00 16.4 4 Noroeste 8 Noroeste 0 -- -- 53
2020-03-19 12:00:00 13.2 4 Oeste 8 Noroeste 0 -- -- 80
2020-03-19 11:00:00 9.3 2 Oeste 4 Oeste 0 -- -- 100
2020-03-19 10:00:00 7.7 2 Sudoeste 4 Sudoeste 0 -- -- 99
2020-03-19 09:00:00 6.4 0 Calma 3 Noroeste 0 -- -- 95
2020-03-19 08:00:00 6 0 Calma 4 Oeste 0 -- -- 94
2020-03-19 07:00:00 6 0 Calma 2 Sudeste 0 -- -- 94
2020-03-19 06:00:00 6.7 2 Sudeste 4 Sudeste 0 -- -- 94
2020-03-19 05:00:00 6.2 2 Norte 3 Nordeste 0 -- -- 91
2020-03-19 04:00:00 6.7 0 Calma 3 Norte 0 -- -- 91
2020-03-19 03:00:00 7.3 0 Calma 3 Este 0 -- -- 88
2020-03-19 02:00:00 8 0 Calma 4 Nordeste 0 -- -- 87
2020-03-19 01:00:00 8.5 0 Calma 5 Este 0 -- -- 84
2020-03-19 00:00:00 9.4 0 Calma 3 Norte 0 -- -- 80
2020-03-18 23:00:00 10.5 0 Calma 5 Sudeste 0 -- -- 75
2020-03-18 22:00:00 11.4 0 Calma 7 Sur 0 -- -- 72
2020-03-18 21:00:00 12.1 2 Sudeste 5 Este 0 -- -- 71
2020-03-18 20:00:00 12.6 3 Este 11 Sudeste 0 -- -- 68
2020-03-18 19:00:00 13.7 4 Sur 24 Sudoeste 0 -- -- 61
2020-03-18 18:00:00 14.5 12 Sudoeste 23 Sudoeste 0 -- -- 59
2020-03-18 17:00:00 15.3 12 Sudoeste 22 Sudoeste 0 -- -- 59
2020-03-18 16:00:00 16 10 Sudoeste 18 Sur 0 -- -- 55
2020-03-18 15:00:00 16.3 2 Noroeste 6 Oeste 0 -- -- 59
2020-03-18 14:00:00 15.2 3 Noroeste 6 Oeste 0 -- -- 66
2020-03-18 13:00:00 14.2 3 Oeste 7 Oeste 0 -- -- 67
2020-03-18 12:00:00 12.4 3 Oeste 6 Oeste 0 -- -- 74
2020-03-18 11:00:00 10.2 2 Oeste 4 Sudoeste 0 -- -- 95
2020-03-18 10:00:00 8.7 0 Calma 4 Oeste 0 -- -- 96
2020-03-18 09:00:00 7.9 0 Calma 3 Oeste 0 -- -- 95
2020-03-18 08:00:00 7.4 0 Calma 8 Sudeste 0 -- -- 93
2020-03-18 07:00:00 7.1 0 Calma 4 Norte 0 -- -- 92
2020-03-18 06:00:00 7.7 0 Calma 2 Sur 0 -- -- 92
2020-03-18 05:00:00 7.9 0 Calma 4 Sudeste 0 -- -- 93
2020-03-18 04:00:00 7.4 0 Calma 2 Este 0 -- -- 92
2020-03-18 03:00:00 7.2 0 Calma 2 Norte 0 -- -- 90
2020-03-18 02:00:00 7.6 0 Calma 2 Oeste 0 -- -- 89
2020-03-18 01:00:00 7.8 2 Noroeste 4 Norte 0 -- -- 87
2020-03-18 00:00:00 8.8 2 Norte 4 Noroeste 0 -- -- 84
2020-03-17 23:00:00 9.3 3 Norte 6 Este 0 -- -- 81
2020-03-17 22:00:00 9.9 0 Calma 5 Este 0 -- -- 79
2020-03-17 21:00:00 10.8 0 Calma 5 Nordeste 0 -- -- 76
2020-03-17 20:00:00 10.6 4 Este 10 Este 0 -- -- 74
2020-03-17 19:00:00 11.9 7 Este 9 Este 0 -- -- 72
2020-03-17 18:00:00 13.2 0 Calma 5 Sur 0 -- -- 77
2020-03-17 17:00:00 13.1 0 Calma 4 Sudoeste 0 -- -- 76
2020-03-17 16:00:00 12.8 0 Calma 4 Oeste 0 -- -- 76
2020-03-17 15:00:00 12.4 0 Calma 4 Sur 0 -- -- 75
2020-03-17 14:00:00 11.7 0 Calma 5 Oeste 0 -- -- 77
2020-03-17 13:00:00 11 0 Calma 5 Oeste 0 -- -- 84
2020-03-17 12:00:00 10.1 2 Noroeste 8 Sudeste 0 -- -- 86
2020-03-17 11:00:00 9.4 2 Sudeste 6 Sudeste 0 -- -- 87
2020-03-17 10:00:00 8.6 2 Sur 4 Sudeste 0 -- -- 90
2020-03-17 09:00:00 8.1 0 Calma 9 Oeste 0 -- -- 91
2020-03-17 08:00:00 7.8 5 Noroeste 8 Norte 0 -- -- 89
2020-03-17 07:00:00 7.9 5 Norte 10 Norte 0 -- -- 89
2020-03-17 06:00:00 7.5 4 Sudeste 14 Sudeste 0 -- -- 91
2020-03-17 05:00:00 7.6 2 Sur 10 Norte 0 -- -- 90
2020-03-17 04:00:00 7.7 3 Sudeste 15 Norte 0 -- -- 89
2020-03-17 03:00:00 8 2 Noroeste 10 Norte 0 -- -- 89
2020-03-17 02:00:00 8.2 3 Norte 10 Oeste 0 -- -- 90
2020-03-17 01:00:00 8.2 3 Oeste 12 Noroeste 0 -- -- 89
2020-03-17 00:00:00 8.3 3 Nordeste 12 Sudeste 0 -- -- 91
2020-03-16 23:00:00 8.1 7 Este 12 Este 0 -- -- 91
2020-03-16 22:00:00 7.9 4 Noroeste 9 Noroeste 2.4 -- -- 89
2020-03-16 21:00:00 8.1 4 Noroeste 18 Norte 4.6 -- -- 87
2020-03-16 20:00:00 8.7 10 Nordeste 22 Nordeste 0.4 -- -- 84
2020-03-16 19:00:00 9.1 6 Norte 14 Norte 0.2 -- -- 83
2020-03-16 18:00:00 9 8 Nordeste 15 Nordeste 0 -- -- 83
2020-03-16 17:00:00 8.7 9 Nordeste 17 Norte 0.6 -- -- 87
2020-03-16 16:00:00 8.5 9 Norte 17 Nordeste 2.2 -- -- 85
2020-03-16 15:00:00 8.5 14 Nordeste 21 Nordeste 0.4 -- -- 83
2020-03-16 14:00:00 8.5 8 Nordeste 16 Nordeste 0.6 -- -- 83
2020-03-16 13:00:00 8.2 7 Norte 14 Norte 3 -- -- 84
2020-03-16 12:00:00 8.6 8 Nordeste 14 Norte 1.8 -- -- 84
2020-03-16 11:00:00 8.6 7 Nordeste 17 Nordeste 2.2 -- -- 81
2020-03-16 10:00:00 8.9 5 Nordeste 15 Sur 2 -- -- 81
2020-03-16 09:00:00 9.2 5 Norte 12 Norte 1.4 -- -- 87
2020-03-16 08:00:00 8.8 4 Nordeste 10 Oeste 0.4 -- -- 90
2020-03-16 07:00:00 8.8 5 Nordeste 8 Nordeste 1.6 -- -- 89
2020-03-16 06:00:00 8.9 2 Norte 10 Norte 1 -- -- 88
2020-03-16 05:00:00 8.9 6 Norte 12 Norte 1.6 -- -- 87
2020-03-16 04:00:00 9 2 Nordeste 13 Norte 2.2 -- -- 86
2020-03-16 03:00:00 9.1 7 Norte 22 Norte 1.6 -- -- 85
2020-03-16 02:00:00 9.2 5 Noroeste 17 Noroeste 1.6 -- -- 85
2020-03-16 01:00:00 9.5 5 Norte 24 Este 3.6 -- -- 83
2020-03-16 00:00:00 10.1 18 Sudeste 37 Este 1.2 -- -- 76
2020-03-15 23:00:00 10.4 4 Sur 26 Sudeste 0.8 -- -- 75
2020-03-15 22:00:00 11.5 12 Sudeste 27 Sudeste 0 -- -- 63
2020-03-15 21:00:00 11.9 11 Sudeste 30 Sudeste 0 -- -- 62
2020-03-15 20:00:00 12.6 9 Sudeste 24 Este 0 -- -- 59
2020-03-15 19:00:00 13.6 8 Sudoeste 27 Sudeste 0 -- -- 58
2020-03-15 18:00:00 15.1 6 Sur 32 Este 0 -- -- 55
2020-03-15 17:00:00 15.7 18 Este 33 Este 0 -- -- 55
2020-03-15 16:00:00 18.2 8 Sudeste 31 Sudoeste 0 -- -- 44
2020-03-15 15:00:00 19.6 15 Sudoeste 30 Oeste 0 -- -- 38
2020-03-15 14:00:00 20.2 13 Oeste 23 Oeste 0 -- -- 36
2020-03-15 13:00:00 19.1 6 Oeste 12 Oeste 0 -- -- 44
2020-03-15 12:00:00 17.3 2 Norte 9 Noroeste 0 -- -- 41
2020-03-15 11:00:00 14.3 3 Noroeste 8 Oeste 0 -- -- 60
2020-03-15 10:00:00 11.7 3 Oeste 6 Oeste 0 -- -- 70
2020-03-15 09:00:00 8.5 0 Calma 4 Sudeste 0 -- -- 80
2020-03-15 08:00:00 5.5 0 Calma 6 Norte 0 -- -- 85
2020-03-15 07:00:00 6.5 2 Este 5 Sudeste 0 -- -- 85
2020-03-15 06:00:00 6.4 2 Este 4 Este 0 -- -- 84
2020-03-15 05:00:00 7.2 0 Calma 4 Norte 0 -- -- 83
2020-03-15 04:00:00 8.3 0 Calma 4 Oeste 0 -- -- 80
2020-03-15 03:00:00 8.9 0 Calma 5 Sudeste 0 -- -- 77
2020-03-15 02:00:00 10.3 3 Sudeste 6 Oeste 0 -- -- 73
2020-03-15 01:00:00 10.5 0 Calma 7 Oeste 0 -- -- 73
2020-03-15 00:00:00 10.3 0 Calma 12 Oeste 0 -- -- 73
2020-03-14 23:00:00 11.2 0 Calma 6 Este 0 -- -- 69
2020-03-14 22:00:00 11.8 0 Calma 7 Sur 0 -- -- 67
2020-03-14 21:00:00 11.9 3 Sudeste 25 Sur 0 -- -- 67
2020-03-14 20:00:00 12.3 13 Sur 37 Sur 0 -- -- 65
2020-03-14 19:00:00 13 13 Sudoeste 33 Sudoeste 0 -- -- 62
2020-03-14 18:00:00 14.4 20 Sudoeste 39 Sudoeste 0 -- -- 57
2020-03-14 17:00:00 15.9 18 Sudoeste 44 Sudoeste 0 -- -- 52
2020-03-14 16:00:00 16 21 Sudoeste 39 Sudoeste 0 -- -- 53
2020-03-14 15:00:00 15.3 20 Sudoeste 40 Sudoeste 0 -- -- 56
2020-03-14 14:00:00 14.2 22 Sudoeste 41 Sudoeste 0 -- -- 59
2020-03-14 13:00:00 13.1 20 Sudoeste 31 Sudoeste 0 -- -- 64
2020-03-14 12:00:00 11.5 16 Sudoeste 32 Sudoeste 0 -- -- 71
2020-03-14 11:00:00 11.4 11 Sur 22 Sudoeste 0 -- -- 73
2020-03-14 10:00:00 10.8 6 Sur 17 Sudoeste 0 -- -- 76
2020-03-14 09:00:00 11 6 Sur 13 Sudoeste 0 -- -- 77
2020-03-14 08:00:00 9.1 7 Sur 15 Sudoeste 0 -- -- 84
2020-03-14 07:00:00 9.6 2 Este 9 Sur 0 -- -- 80
2020-03-14 06:00:00 9.5 0 Calma 9 Norte 0 -- -- 80
2020-03-14 05:00:00 10 8 Norte 9 Norte 0 -- -- 78
2020-03-14 04:00:00 9.9 4 Sudeste 9 Sudeste 0 -- -- 80
2020-03-14 03:00:00 9.7 3 Sudeste 12 Oeste 0 -- -- 77
2020-03-14 02:00:00 9.8 4 Sudeste 10 Este 0 -- -- 76
2020-03-14 01:00:00 10.7 4 Sur 13 Este 0 -- -- 73
2020-03-14 00:00:00 11 5 Este 9 Sudeste 0 -- -- 73
2020-03-13 23:00:00 12.6 3 Oeste 15 Sudoeste 0 -- -- 64
2020-03-13 22:00:00 13.2 7 Sudoeste 17 Sudoeste 0 -- -- 63
2020-03-13 21:00:00 13.7 10 Sudoeste 23 Sudoeste 0 -- -- 59
2020-03-13 20:00:00 14.1 13 Sudoeste 27 Sudoeste 0 -- -- 58
2020-03-13 19:00:00 14.1 8 Sudoeste 24 Sudoeste 0 -- -- 57
2020-03-13 18:00:00 14.1 13 Sudoeste 27 Sudoeste 0 -- -- 58
2020-03-13 17:00:00 14.8 13 Sudoeste 29 Sudoeste 0 -- -- 55
2020-03-13 16:00:00 14.3 12 Sudoeste 22 Sur 0 -- -- 57
2020-03-13 15:00:00 14.8 10 Sudoeste 25 Sudoeste 0 -- -- 55
2020-03-13 14:00:00 14.8 13 Sudoeste 32 Sudoeste 0 -- -- 50
2020-03-13 13:00:00 15.9 16 Sudoeste 33 Sudoeste 0 -- -- 47
2020-03-13 12:00:00 15.8 19 Sudoeste 36 Sudoeste 0 -- -- 53
2020-03-13 11:00:00 15 17 Sudoeste 30 Sudoeste 0 -- -- 62
2020-03-13 10:00:00 13.2 9 Sudoeste 22 Sudoeste 0 -- -- 67
2020-03-13 09:00:00 11.5 6 Sur 15 Sur 0 -- -- 74
2020-03-13 08:00:00 10.7 6 Sur 17 Sur 0 -- -- 76
2020-03-13 07:00:00 10.7 4 Sudeste 8 Sur 0 -- -- 76
2020-03-13 06:00:00 11.1 3 Noroeste 14 Sur 0 -- -- 74
2020-03-13 05:00:00 11.9 3 Sudeste 9 Sur 0 -- -- 73
2020-03-13 04:00:00 13 4 Este 18 Sur 0.8 -- -- 70
2020-03-13 03:00:00 14.5 10 Sudoeste 21 Sur 0 -- -- 61
2020-03-13 02:00:00 15.4 9 Sudeste 29 Sudoeste 0 -- -- 60
2020-03-13 01:00:00 14.8 3 Norte 17 Este 0 -- -- 62
2020-03-13 00:00:00 16.3 9 Sudeste 14 Sudoeste 0 -- -- 59
2020-03-12 23:00:00 17.7 15 Oeste 31 Este 0 -- -- 48
2020-03-12 22:00:00 18.2 14 Este 25 Este 0 -- -- 41
2020-03-12 21:00:00 17.6 0 Calma 12 Oeste 0 -- -- 43
2020-03-12 20:00:00 19.7 4 Noroeste 12 Sudeste 0 -- -- 34
2020-03-12 19:00:00 21.5 5 Sudeste 14 Sudoeste 0 -- -- 29
2020-03-12 18:00:00 23.7 9 Sudoeste 21 Sudoeste 0 -- -- 27
2020-03-12 17:00:00 25.9 13 Sudoeste 24 Sudoeste 0 -- -- 24
2020-03-12 16:00:00 26.4 13 Sudoeste 23 Sudoeste 0 -- -- 27
2020-03-12 15:00:00 25.1 3 Noroeste 10 Oeste 0 -- -- 32
2020-03-12 14:00:00 22.9 6 Noroeste 10 Noroeste 0 -- -- 33
2020-03-12 13:00:00 21.3 6 Oeste 9 Oeste 0 -- -- 38
2020-03-12 12:00:00 18.1 3 Oeste 6 Oeste 0 -- -- 44
2020-03-12 11:00:00 15.2 3 Oeste 5 Sudoeste 0 -- -- 58
2020-03-12 10:00:00 11.5 0 Calma 6 Oeste 0 -- -- 71
2020-03-12 09:00:00 8.6 0 Calma 3 Sur 0 -- -- 78
2020-03-12 08:00:00 6.9 0 Calma 3 Norte 0 -- -- 79
2020-03-12 07:00:00 6.8 0 Calma 2 Este 0 -- -- 82
2020-03-12 06:00:00 7.1 0 Calma 2 Norte 0 -- -- 77
2020-03-12 05:00:00 8 0 Calma 3 Este 0 -- -- 75
2020-03-12 04:00:00 8.8 0 Calma 4 Este 0 -- -- 72
2020-03-12 03:00:00 9 2 Este 5 Este 0 -- -- 71
2020-03-12 02:00:00 9.7 0 Calma 3 Este 0 -- -- 68
2020-03-12 01:00:00 11.4 0 Calma 3 Noroeste 0 -- -- 61
2020-03-12 00:00:00 12.1 0 Calma 5 Sudeste 0 -- -- 60
2020-03-11 23:00:00 12.4 0 Calma 5 Norte 0 -- -- 60
2020-03-11 22:00:00 14.3 0 Calma 7 Este 0 -- -- 50
2020-03-11 21:00:00 15.6 5 Sudeste 13 Sur 0 -- -- 48
2020-03-11 20:00:00 17.4 9 Sur 19 Sudeste 0 -- -- 44
2020-03-11 19:00:00 18.6 7 Sur 29 Sudoeste 0 -- -- 41
2020-03-11 18:00:00 20.7 15 Sudoeste 33 Sudoeste 0 -- -- 37
2020-03-11 17:00:00 22.1 20 Sudoeste 39 Sudoeste 0 -- -- 33
2020-03-11 16:00:00 22.4 21 Sudoeste 39 Sudoeste 0 -- -- 32
2020-03-11 15:00:00 22.1 19 Sudoeste 38 Sudoeste 0 -- -- 31
2020-03-11 14:00:00 22.3 16 Sudoeste 29 Sudoeste 0 -- -- 30
2020-03-11 13:00:00 20.2 4 Sudoeste 11 Oeste 0 -- -- 32
2020-03-11 12:00:00 16.9 3 Noroeste 8 Noroeste 0 -- -- 42
2020-03-11 11:00:00 13.3 3 Oeste 9 Sudoeste 0 -- -- 59
2020-03-11 10:00:00 9.5 3 Sudoeste 5 Sudoeste 0 -- -- 70
2020-03-11 09:00:00 6.3 0 Calma 4 Norte 0 -- -- 81
2020-03-11 08:00:00 3.8 0 Calma 4 Noroeste 0 -- -- 86
2020-03-11 07:00:00 4 0 Calma 3 Este 0 -- -- 84
2020-03-11 06:00:00 4.6 2 Nordeste 7 Sudeste 0 -- -- 84
2020-03-11 05:00:00 4.3 0 Calma 4 Sudoeste 0 -- -- 82
2020-03-11 04:00:00 5.3 0 Calma 6 Sudoeste 0 -- -- 78
2020-03-11 03:00:00 6.6 0 Calma 8 Este 0 -- -- 78
2020-03-11 02:00:00 7.1 0 Calma 7 Sudeste 0 -- -- 74
2020-03-11 01:00:00 7.8 2 Noroeste 4 Noroeste 0 -- -- 71
2020-03-11 00:00:00 8.8 0 Calma 6 Nordeste 0 -- -- 67
2020-03-10 23:00:00 9.9 2 Norte 5 Este 0 -- -- 65
2020-03-10 22:00:00 10.1 3 Norte 5 Norte 0 -- -- 66
2020-03-10 21:00:00 11.3 0 Calma 9 Norte 0 -- -- 61
2020-03-10 20:00:00 12.5 3 Oeste 6 Este 0 -- -- 56
2020-03-10 19:00:00 14.5 3 Sudeste 15 Sudoeste 0 -- -- 49
2020-03-10 18:00:00 16.7 6 Sudoeste 27 Sudoeste 0 -- -- 43
2020-03-10 17:00:00 18.1 14 Sudoeste 24 Sudoeste 0 -- -- 39
2020-03-10 16:00:00 18.5 4 Sudoeste 13 Oeste 0 -- -- 32
2020-03-10 15:00:00 16.3 5 Oeste 10 Oeste 0 -- -- 36
2020-03-10 14:00:00 13.5 5 Noroeste 7 Oeste 0 -- -- 41
2020-03-10 13:00:00 13.2 5 Sudoeste 10 Sur 0 -- -- 39
2020-03-10 12:00:00 11.5 2 Sudeste 12 Noroeste 0 -- -- 44
2020-03-10 11:00:00 10.4 7 Noroeste 9 Norte 0 -- -- 52
2020-03-10 10:00:00 6.8 3 Oeste 8 Oeste 0 -- -- 62
2020-03-10 09:00:00 4.4 6 Norte 11 Norte 0 -- -- 69
2020-03-10 08:00:00 1.7 0 Calma 5 Sudeste 0 -- -- 76
2020-03-10 07:00:00 2.4 0 Calma 5 Este 0 -- -- 71
2020-03-10 06:00:00 3.1 3 Sudeste 9 Sur 0 -- -- 67
2020-03-10 05:00:00 3.6 0 Calma 11 Sudeste 0 -- -- 65
2020-03-10 04:00:00 3.2 2 Sudeste 9 Sudeste 0 -- -- 65
2020-03-10 03:00:00 4 3 Sudeste 6 Sudeste 0 -- -- 60
2020-03-10 02:00:00 4.2 0 Calma 8 Este 0 -- -- 58
2020-03-10 01:00:00 5.2 2 Oeste 5 Norte 0 -- -- 54
2020-03-10 00:00:00 6.8 0 Calma 10 Este 0 -- -- 48
2020-03-09 23:00:00 7 4 Nordeste 10 Este 0 -- -- 47
2020-03-09 22:00:00 8 6 Este 9 Este 0 -- -- 43
2020-03-09 21:00:00 8.9 0 Calma 9 Este 0 -- -- 40
2020-03-09 20:00:00 10 2 Noroeste 10 Norte 0 -- -- 38
2020-03-09 19:00:00 13.2 3 Noroeste 18 Norte 0 -- -- 27
2020-03-09 18:00:00 15.5 10 Norte 36 Norte 0 -- -- 23
2020-03-09 17:00:00 16.9 21 Norte 40 Nordeste 0 -- -- 19
2020-03-09 16:00:00 18.2 14 Norte 35 Oeste 0 -- -- 19
2020-03-09 15:00:00 17.6 15 Noroeste 27 Oeste 0 -- -- 21
2020-03-09 14:00:00 17.2 18 Oeste 30 Oeste 0 -- -- 27
2020-03-09 13:00:00 15.7 18 Oeste 31 Oeste 0 -- -- 30
2020-03-09 12:00:00 14.9 21 Oeste 28 Oeste 0 -- -- 31
2020-03-09 11:00:00 12.7 3 Sur 8 Sudeste 0 -- -- 44
2020-03-09 10:00:00 8 3 Noroeste 6 Oeste 0 -- -- 73
2020-03-09 09:00:00 4.8 3 Sudoeste 6 Nordeste 0 -- -- 81
2020-03-09 08:00:00 2.8 4 Norte 10 Norte 0 -- -- 86
2020-03-09 07:00:00 2.7 3 Sudeste 6 Sudeste 0 -- -- 85
2020-03-09 06:00:00 3.7 2 Norte 12 Este 0 -- -- 81
2020-03-09 05:00:00 3.8 5 Sur 16 Nordeste 0 -- -- 80
2020-03-09 04:00:00 5.9 5 Norte 14 Noroeste 0 -- -- 74
2020-03-09 03:00:00 4.7 6 Este 14 Este 0 -- -- 79
2020-03-09 02:00:00 6.2 7 Este 12 Este 0 -- -- 75
2020-03-09 01:00:00 5.9 4 Oeste 11 Norte 0 -- -- 72
2020-03-09 00:00:00 7.2 4 Sudeste 8 Sudeste 0 -- -- 70
2020-03-08 23:00:00 7.7 2 Sudeste 7 Nordeste 0 -- -- 67
2020-03-08 22:00:00 9.2 0 Calma 7 Noroeste 0 -- -- 62
2020-03-08 21:00:00 10.3 2 Este 8 Este 0 -- -- 59
2020-03-08 20:00:00 11.3 6 Este 10 Este 0 -- -- 53
2020-03-08 19:00:00 13.7 3 Este 17 Sudoeste 0 -- -- 44
2020-03-08 18:00:00 14.7 7 Sudoeste 25 Sudoeste 0 -- -- 38
2020-03-08 17:00:00 16.2 14 Sudoeste 27 Sudoeste 0 -- -- 36
2020-03-08 16:00:00 15.7 13 Sudoeste 29 Sudoeste 0 -- -- 42
2020-03-08 15:00:00 15.9 17 Sudoeste 31 Sudoeste 0 -- -- 41
2020-03-08 14:00:00 16.3 16 Sudoeste 25 Sudoeste 0 -- -- 40
2020-03-08 13:00:00 17.1 9 Sudoeste 20 Sudoeste 0 -- -- 37
2020-03-08 12:00:00 15.3 6 Sudoeste 13 Oeste 0 -- -- 37
2020-03-08 11:00:00 11.7 4 Oeste 8 Sur 0 -- -- 42
2020-03-08 10:00:00 8.8 2 Noroeste 6 Sudeste 0 -- -- 55
2020-03-08 09:00:00 4.3 3 Nordeste 6 Noroeste 0 -- -- 73
2020-03-08 08:00:00 2.2 0 Calma 6 Este 0 -- -- 73
2020-03-08 07:00:00 3.5 0 Calma 6 Este 0 -- -- 66
2020-03-08 06:00:00 3.7 2 Norte 5 Este 0 -- -- 68
2020-03-08 05:00:00 4.6 2 Sudeste 5 Este 0 -- -- 64
2020-03-08 04:00:00 6.1 0 Calma 8 Este 0 -- -- 58
2020-03-08 03:00:00 7.5 0 Calma 9 Este 0 -- -- 55
2020-03-08 02:00:00 8.1 3 Noroeste 6 Oeste 0 -- -- 53
2020-03-08 01:00:00 8.9 0 Calma 8 Este 0 -- -- 47
2020-03-08 00:00:00 9.2 6 Este 9 Este 0 -- -- 45
2020-03-07 23:00:00 9.5 7 Este 10 Este 0 -- -- 43
2020-03-07 22:00:00 9.1 2 Norte 8 Nordeste 0 -- -- 46
2020-03-07 21:00:00 9.9 6 Este 10 Este 0 -- -- 44
2020-03-07 20:00:00 10.3 3 Nordeste 7 Este 0 -- -- 44
2020-03-07 19:00:00 11.9 4 Nordeste 7 Norte 0 -- -- 33
2020-03-07 18:00:00 14.7 4 Noroeste 13 Oeste 0 -- -- 27
2020-03-07 17:00:00 17.4 4 Noroeste 16 Oeste 0 -- -- 20
2020-03-07 16:00:00 17.3 15 Sudoeste 25 Oeste 0 -- -- 23
2020-03-07 15:00:00 16.3 15 Sudoeste 25 Sudoeste 0 -- -- 30
2020-03-07 14:00:00 15.9 14 Sudoeste 26 Sudoeste 0 -- -- 29
2020-03-07 13:00:00 15.2 13 Sudoeste 27 Sudoeste 0 -- -- 31
2020-03-07 12:00:00 13.1 14 Sudoeste 26 Sur 0 -- -- 32
2020-03-07 11:00:00 11.5 14 Sudoeste 27 Sudoeste 0 -- -- 32
2020-03-07 10:00:00 10.7 5 Sur 15 Sudeste 0 -- -- 35
2020-03-07 09:00:00 5.2 6 Sudeste 15 Sudeste 0 -- -- 56
2020-03-07 08:00:00 2.4 6 Este 10 Este 0 -- -- 60
2020-03-07 07:00:00 2.1 3 Este 14 Este 0 -- -- 61
2020-03-07 06:00:00 1.7 5 Este 12 Este 0 -- -- 66
2020-03-07 05:00:00 1.1 2 Nordeste 14 Este 0 -- -- 70
2020-03-07 04:00:00 0.8 2 Este 10 Este 0 -- -- 72
2020-03-07 03:00:00 1.2 6 Este 10 Este 0 -- -- 70
2020-03-07 02:00:00 1.7 3 Este 8 Este 0 -- -- 67
2020-03-07 01:00:00 2 2 Noroeste 11 Nordeste 0 -- -- 64
2020-03-07 00:00:00 2.3 6 Este 10 Nordeste 0 -- -- 61
2020-03-06 23:00:00 2.5 5 Este 10 Este 0 -- -- 62
2020-03-06 22:00:00 3.2 0 Calma 10 Noroeste 0 -- -- 61
2020-03-06 21:00:00 4 4 Noroeste 18 Noroeste 0 -- -- 59
2020-03-06 20:00:00 5.1 14 Oeste 33 Oeste 0 -- -- 56
2020-03-06 19:00:00 6.6 19 Noroeste 53 Oeste 0 -- -- 45
2020-03-06 18:00:00 8.6 34 Oeste 54 Oeste 0 -- -- 41
2020-03-06 17:00:00 11.4 28 Noroeste 45 Oeste 0 -- -- 28
2020-03-06 16:00:00 12.5 26 Oeste 53 Oeste 0 -- -- 29
2020-03-06 15:00:00 12.7 28 Oeste 48 Noroeste 0 -- -- 32
2020-03-06 14:00:00 11.6 31 Oeste 46 Oeste 0 -- -- 38
2020-03-06 13:00:00 12.3 27 Oeste 38 Oeste 0 -- -- 38
2020-03-06 12:00:00 11 9 Norte 28 Oeste 0 -- -- 45
2020-03-06 11:00:00 8.3 3 Sudeste 12 Oeste 0 -- -- 55
2020-03-06 10:00:00 5.3 3 Oeste 9 Oeste 0 -- -- 72
2020-03-06 09:00:00 1.6 2 Sudoeste 8 Nordeste 0 -- -- 85
2020-03-06 08:00:00 0 2 Sur 7 Nordeste 0 -- -- 86
2020-03-06 07:00:00 -0.4 2 Este 8 Oeste 0 -- -- 84
2020-03-06 06:00:00 0.2 2 Nordeste 8 Oeste 0 -- -- 82
2020-03-06 05:00:00 1.3 2 Norte 8 Nordeste 0 -- -- 75
2020-03-06 04:00:00 1.8 4 Nordeste 9 Este 0 -- -- 75
2020-03-06 03:00:00 2.2 2 Este 9 Noroeste 0 -- -- 73
2020-03-06 02:00:00 3.6 3 Este 9 Este 0 -- -- 67
2020-03-06 01:00:00 5.5 5 Este 15 Sudoeste 0 -- -- 56
2020-03-06 00:00:00 6.4 2 Norte 15 Oeste 0 -- -- 57
2020-03-05 23:00:00 7.2 3 Sudeste 23 Oeste 0 -- -- 55
2020-03-05 22:00:00 8.6 12 Oeste 22 Noroeste 0 -- -- 50
2020-03-05 21:00:00 9.4 7 Sudeste 25 Sudeste 0 -- -- 51
2020-03-05 20:00:00 9.7 8 Sudeste 27 Oeste 0 -- -- 52
2020-03-05 19:00:00 10.9 20 Oeste 52 Oeste 0 -- -- 50
2020-03-05 18:00:00 12.8 34 Oeste 60 Oeste 0 -- -- 46
2020-03-05 17:00:00 13 36 Noroeste 60 Oeste 1 -- -- 47
2020-03-05 16:00:00 14.6 16 Noroeste 47 Oeste 0 -- -- 57
2020-03-05 15:00:00 14.7 22 Oeste 38 Oeste 0 -- -- 57
2020-03-05 14:00:00 14.7 9 Noroeste 28 Noroeste 0 -- -- 60
2020-03-05 13:00:00 13 5 Oeste 21 Oeste 0 -- -- 62
2020-03-05 12:00:00 12 5 Oeste 14 Sur 0 -- -- 72
2020-03-05 11:00:00 10.1 3 Oeste 8 Oeste 0 -- -- 84
2020-03-05 10:00:00 8.7 2 Noroeste 6 Sudoeste 0 -- -- 87
2020-03-05 09:00:00 7.4 0 Calma 8 Norte 0 -- -- 89
2020-03-05 08:00:00 6 0 Calma 9 Sudeste 0 -- -- 89
2020-03-05 07:00:00 6 3 Norte 10 Sudeste 0 -- -- 88
2020-03-05 06:00:00 6.3 4 Nordeste 9 Nordeste 0 -- -- 89
2020-03-05 05:00:00 7.4 0 Calma 6 Sudeste 0 -- -- 85
2020-03-05 04:00:00 7.6 2 Sudeste 4 Oeste 0 -- -- 84
2020-03-05 03:00:00 8.1 0 Calma 5 Oeste 0 -- -- 82
2020-03-05 02:00:00 8.5 2 Nordeste 9 Norte 0 -- -- 81
2020-03-05 01:00:00 8.7 0 Calma 5 Sur 0 -- -- 80
2020-03-05 00:00:00 9.8 4 Nordeste 11 Norte 0 -- -- 76